Time;durP1;ratioP1;P1;durP2;ratioP2;P2;SDS_P1;SDS_P2;PMS_P1;PMS_P2;Temp;Humidity;BMP_temperature;BMP_pressure;BME280_temperature;BME280_humidity;BME280_pressure;Samples;Min_cycle;Max_cycle;Signal;HPM_P1;HPM_P2
2022/11/07 00:01:51;;;;;;;2.53;1.30;;;;;;;-141.59;100.00;61776.25;5082897;28;20201;-81
2022/11/07 00:04:18;;;;;;;1.33;1.17;;;;;;;-141.59;100.00;61776.25;5082931;28;20207;-81
2022/11/07 00:06:46;;;;;;;2.63;1.40;;;;;;;-141.59;100.00;61776.25;5099164;28;20257;-81
2022/11/07 00:09:16;;;;;;;1.37;1.20;;;;;;;-141.59;100.00;61776.25;5086075;28;20204;-81
2022/11/07 00:11:43;;;;;;;0.80;0.80;;;;;;;-141.59;100.00;61776.25;5086074;28;20220;-81
2022/11/07 00:14:11;;;;;;;1.90;0.90;;;;;;;-141.59;100.00;61776.25;5084779;28;20196;-81
2022/11/07 00:16:41;;;;;;;1.10;0.87;;;;;;;-141.59;100.00;61776.25;5077349;28;20283;-81
2022/11/07 00:19:08;;;;;;;2.00;0.83;;;;;;;-141.59;100.00;61776.25;5085181;28;20229;-81
2022/11/07 00:21:37;;;;;;;1.20;1.10;;;;;;;-141.59;100.00;61776.25;5081784;28;20205;-81
2022/11/07 00:24:04;;;;;;;1.00;0.90;;;;;;;-141.59;100.00;61776.25;5077105;28;20201;-81
2022/11/07 00:26:33;;;;;;;1.20;1.03;;;;;;;-141.59;100.00;61776.25;5080532;28;20227;-81
2022/11/07 00:29:00;;;;;;;0.90;0.70;;;;;;;-141.59;100.00;61776.25;5082296;28;20197;-81
2022/11/07 00:31:27;;;;;;;1.03;0.93;;;;;;;-141.59;100.00;61776.25;5079607;28;20216;-81
2022/11/07 00:33:57;;;;;;;0.90;0.80;;;;;;;-141.59;100.00;61776.25;5084462;28;20204;-81
2022/11/07 00:36:28;;;;;;;2.40;1.00;;;;;;;-141.59;100.00;61776.25;5083861;28;20292;-81
2022/11/07 00:38:56;;;;;;;0.97;0.83;;;;;;;-141.59;100.00;61776.25;5084647;28;20201;-81
2022/11/07 00:41:24;;;;;;;1.10;1.00;;;;;;;-141.59;100.00;61776.25;5088500;28;20200;-81
2022/11/07 00:43:51;;;;;;;1.27;1.00;;;;;;;-141.59;100.00;61776.25;5083859;28;20284;-81
2022/11/07 00:46:19;;;;;;;0.83;0.83;;;;;;;-141.59;100.00;61776.25;5081443;28;20193;-81
2022/11/07 00:48:46;;;;;;;1.47;0.90;;;;;;;-141.59;100.00;61776.25;5085034;28;20200;-81
2022/11/07 00:51:17;;;;;;;1.33;1.10;;;;;;;-141.59;100.00;61776.25;5083119;28;20227;-81
2022/11/07 00:53:44;;;;;;;1.13;1.03;;;;;;;-141.59;100.00;61776.25;5084285;28;20197;-81
2022/11/07 00:56:14;;;;;;;1.30;1.10;;;;;;;-141.59;100.00;61776.25;5085845;28;20209;-81
2022/11/07 00:58:43;;;;;;;1.03;0.93;;;;;;;-141.59;100.00;61776.25;5082903;28;20201;-81
2022/11/07 01:01:13;;;;;;;1.07;1.00;;;;;;;-141.59;100.00;61776.25;5082936;28;20201;-81
2022/11/07 01:06:29;;;;;;;3.43;1.20;;;;;;;-141.59;100.00;61776.25;5075155;28;20202;-81
2022/11/07 01:08:57;;;;;;;1.87;1.30;;;;;;;-141.59;100.00;61776.25;5092024;28;20231;-81
2022/11/07 01:11:26;;;;;;;1.67;1.20;;;;;;;-141.59;100.00;61776.25;5087052;28;20227;-81
2022/11/07 01:13:55;;;;;;;1.37;1.10;;;;;;;-141.59;100.00;61776.25;5083648;28;20222;-81
2022/11/07 01:16:22;;;;;;;1.77;1.00;;;;;;;-141.59;100.00;61776.25;5085480;28;20201;-81
2022/11/07 01:18:50;;;;;;;1.67;1.20;;;;;;;-141.59;100.00;61776.25;5088331;28;20240;-81
2022/11/07 01:21:18;;;;;;;1.57;1.20;;;;;;;-141.59;100.00;61776.25;5081206;28;20203;-81
2022/11/07 01:23:47;;;;;;;1.47;1.10;;;;;;;-141.59;100.00;61776.25;5090324;28;20209;-81
2022/11/07 01:26:15;;;;;;;1.13;1.03;;;;;;;-141.59;100.00;61776.25;5087028;28;20208;-81
2022/11/07 01:28:43;;;;;;;1.20;1.10;;;;;;;-141.59;100.00;61776.25;5083992;28;20366;-81
2022/11/07 01:31:13;;;;;;;1.60;1.17;;;;;;;-141.59;100.00;61776.25;5086369;28;20197;-81
2022/11/07 01:33:40;;;;;;;1.70;1.13;;;;;;;-141.59;100.00;61776.25;5088621;28;20247;-81
2022/11/07 01:36:10;;;;;;;1.30;1.20;;;;;;;-141.59;100.00;61776.25;5081921;28;20232;-81
2022/11/07 01:38:38;;;;;;;2.03;1.13;;;;;;;-141.59;100.00;61776.25;5084824;28;20239;-81
2022/11/07 01:41:23;;;;;;;1.20;1.10;;;;;;;-141.59;100.00;61776.25;5082677;28;20206;-81
2022/11/07 01:43:54;;;;;;;2.10;1.07;;;;;;;-141.59;100.00;61776.25;5088812;28;20197;-81
2022/11/07 01:46:24;;;;;;;2.10;1.20;;;;;;;-141.59;100.00;61776.25;5088067;28;20200;-81
2022/11/07 01:48:59;;;;;;;1.23;1.07;;;;;;;-141.59;100.00;61776.25;5085541;28;20205;-81
2022/11/07 01:51:28;;;;;;;1.43;1.13;;;;;;;-141.59;100.00;61776.25;5083219;28;20216;-81
2022/11/07 01:53:56;;;;;;;1.20;1.00;;;;;;;-141.59;100.00;61776.25;5076046;28;20202;-81
2022/11/07 01:56:32;;;;;;;1.17;1.00;;;;;;;-141.59;100.00;61776.25;5080843;28;20198;-81
2022/11/07 01:59:00;;;;;;;1.97;1.10;;;;;;;-141.59;100.00;61776.25;5085049;28;20212;-81
2022/11/07 02:01:27;;;;;;;1.27;1.00;;;;;;;-141.59;100.00;61776.25;5075923;28;20324;-81
2022/11/07 02:03:57;;;;;;;2.73;1.10;;;;;;;-141.59;100.00;61776.25;5081480;28;20240;-81
2022/11/07 02:06:33;;;;;;;1.27;1.10;;;;;;;-141.59;100.00;61776.25;5084917;28;20204;-81
2022/11/07 02:09:00;;;;;;;2.10;0.90;;;;;;;-141.59;100.00;61776.25;5083058;28;20220;-81
2022/11/07 02:11:30;;;;;;;1.93;1.00;;;;;;;-141.59;100.00;61776.25;5083379;28;20228;-81
2022/11/07 02:13:57;;;;;;;1.00;0.90;;;;;;;-141.59;100.00;61776.25;5080745;28;20220;-81
2022/11/07 02:16:27;;;;;;;1.00;0.90;;;;;;;-141.59;100.00;61776.25;5078213;28;20197;-81
2022/11/07 02:18:55;;;;;;;2.57;0.90;;;;;;;-141.59;100.00;61776.25;5082834;28;20221;-81
2022/11/07 02:21:35;;;;;;;1.00;0.90;;;;;;;-141.59;100.00;61776.25;5087866;28;20217;-81
2022/11/07 02:24:15;;;;;;;0.80;0.80;;;;;;;-141.59;100.00;61776.25;5085394;28;20204;-81
2022/11/07 02:26:43;;;;;;;0.90;0.90;;;;;;;-141.59;100.00;61776.25;5087501;28;20208;-81
2022/11/07 02:29:12;;;;;;;1.73;1.03;;;;;;;-141.59;100.00;61776.25;5086487;28;20201;-81
2022/11/07 02:31:39;;;;;;;1.00;0.90;;;;;;;-141.59;100.00;61776.25;5078657;28;20304;-81
2022/11/07 02:34:09;;;;;;;1.00;0.90;;;;;;;-141.59;100.00;61776.25;5081033;28;20205;-81
2022/11/07 02:36:36;;;;;;;0.70;0.70;;;;;;;-141.59;100.00;61776.25;5071994;28;20240;-82
2022/11/07 02:39:03;;;;;;;2.10;0.97;;;;;;;-141.59;100.00;61776.25;5089857;28;20212;-81
2022/11/07 02:41:34;;;;;;;1.10;1.00;;;;;;;-141.59;100.00;61776.25;5097979;28;20200;-81
2022/11/07 02:44:06;;;;;;;0.97;0.90;;;;;;;-141.59;100.00;61776.25;5088441;28;20197;-81
2022/11/07 02:46:37;;;;;;;1.27;1.17;;;;;;;-141.59;100.00;61776.25;5085604;28;20246;-81
2022/11/07 02:49:06;;;;;;;1.33;0.80;;;;;;;-141.59;100.00;61776.25;5083912;28;20201;-81
2022/11/07 02:51:33;;;;;;;1.60;0.90;;;;;;;-141.59;100.00;61776.25;5085257;28;20291;-81
2022/11/07 02:54:00;;;;;;;1.67;0.90;;;;;;;-141.59;100.00;61776.25;5087618;28;20295;-81
2022/11/07 02:56:27;;;;;;;0.80;0.80;;;;;;;-141.59;100.00;61776.25;5076613;28;20224;-81
2022/11/07 02:58:58;;;;;;;1.17;0.90;;;;;;;-141.59;100.00;61776.25;5080157;28;20204;-81
2022/11/07 03:01:25;;;;;;;0.87;0.87;;;;;;;-141.59;100.00;61776.25;5073870;28;20292;-81
2022/11/07 03:03:52;;;;;;;0.70;0.70;;;;;;;-141.59;100.00;61776.25;5084209;28;20207;-81
2022/11/07 03:06:21;;;;;;;0.97;0.83;;;;;;;-141.59;100.00;61776.25;5078630;28;20206;-81
2022/11/07 03:08:49;;;;;;;1.23;0.90;;;;;;;-141.59;100.00;61776.25;5083214;28;20200;-81
2022/11/07 03:11:18;;;;;;;0.70;0.70;;;;;;;-141.59;100.00;61776.25;5086915;28;20211;-81
2022/11/07 03:13:46;;;;;;;1.63;0.90;;;;;;;-141.59;100.00;61776.25;5084416;28;20216;-81
2022/11/07 03:16:15;;;;;;;0.90;0.87;;;;;;;-141.59;100.00;61776.25;5084130;28;20204;-81
2022/11/07 03:18:43;;;;;;;1.20;0.90;;;;;;;-141.59;100.00;61776.25;5086025;28;20217;-81
2022/11/07 03:21:13;;;;;;;1.67;0.80;;;;;;;-141.59;100.00;61776.25;5082615;28;20227;-81
2022/11/07 03:23:41;;;;;;;1.00;0.90;;;;;;;-141.59;100.00;61776.25;5084647;28;20322;-81
2022/11/07 03:26:08;;;;;;;0.70;0.70;;;;;;;-141.59;100.00;61776.25;5078911;28;20276;-81
2022/11/07 03:28:35;;;;;;;0.93;0.73;;;;;;;-141.59;100.00;61776.25;5087414;28;20284;-81
2022/11/07 03:31:03;;;;;;;4.17;1.37;;;;;;;-141.59;100.00;61776.25;5076376;28;20211;-81
2022/11/07 03:33:33;;;;;;;1.20;1.00;;;;;;;-141.59;100.00;61776.25;5095993;28;20239;-81
2022/11/07 03:36:01;;;;;;;0.70;0.70;;;;;;;-141.59;100.00;61776.25;5080466;28;20232;-81
2022/11/07 03:38:28;;;;;;;0.73;0.73;;;;;;;-141.59;100.00;61776.25;5083544;28;20205;-81
2022/11/07 03:40:55;;;;;;;1.00;1.00;;;;;;;-141.59;100.00;61776.25;5080001;28;20216;-81
2022/11/07 03:43:22;;;;;;;0.70;0.70;;;;;;;-141.59;100.00;61776.25;5075624;28;20212;-81
2022/11/07 03:45:49;;;;;;;0.70;0.70;;;;;;;-141.59;100.00;61776.25;5085820;28;20217;-81
2022/11/07 03:48:17;;;;;;;0.77;0.77;;;;;;;-141.59;100.00;61776.25;5086130;28;20200;-81
2022/11/07 03:50:45;;;;;;;1.80;0.80;;;;;;;-141.59;100.00;61776.25;5084172;28;20189;-81
2022/11/07 03:53:15;;;;;;;1.93;1.00;;;;;;;-141.59;100.00;61776.25;5077603;28;20221;-81
2022/11/07 03:55:43;;;;;;;1.33;0.87;;;;;;;-141.59;100.00;61776.25;5082034;28;20192;-81
2022/11/07 03:58:10;;;;;;;0.70;0.70;;;;;;;-141.59;100.00;61776.25;5076444;28;20261;-82
2022/11/07 04:00:38;;;;;;;1.33;0.80;;;;;;;-141.59;100.00;61776.25;5072260;28;20220;-81
2022/11/07 04:03:05;;;;;;;0.77;0.77;;;;;;;-141.59;100.00;61776.25;5082224;28;20225;-81
2022/11/07 04:05:38;;;;;;;0.90;0.90;;;;;;;-141.59;100.00;61776.25;5081363;28;20204;-81
2022/11/07 04:08:06;;;;;;;0.80;0.80;;;;;;;-141.59;100.00;61776.25;5083309;28;20251;-81
2022/11/07 04:10:34;;;;;;;1.07;0.80;;;;;;;-141.59;100.00;61776.25;5081634;28;20219;-80
2022/11/07 04:18:31;;;;;;;2.20;1.10;;;;;;;-141.59;100.00;61776.25;5086558;28;20232;-81
2022/11/07 04:20:58;;;;;;;1.07;0.87;;;;;;;-141.59;100.00;61776.25;5084156;28;20192;-81
2022/11/07 04:23:26;;;;;;;1.53;0.70;;;;;;;-141.59;100.00;61776.25;5083521;28;20209;-81
2022/11/07 04:28:52;;;;;;;0.70;0.70;;;;;;;-141.59;100.00;61776.25;4998649;28;20216;-81
2022/11/07 04:31:23;;;;;;;1.47;1.10;;;;;;;-141.59;100.00;61776.25;4986156;28;20204;-81
2022/11/07 04:33:50;;;;;;;0.70;0.70;;;;;;;-141.59;100.00;61776.25;5024106;28;20228;-81
2022/11/07 04:36:19;;;;;;;0.90;0.87;;;;;;;-141.59;100.00;61776.25;5086967;28;20234;-81
2022/11/07 04:38:47;;;;;;;1.23;1.00;;;;;;;-141.59;100.00;61776.25;5084294;28;20289;-81
2022/11/07 04:41:20;;;;;;;1.10;1.00;;;;;;;-141.59;100.00;61776.25;5078329;28;20201;-81
2022/11/07 04:43:47;;;;;;;1.60;1.00;;;;;;;-141.59;100.00;61776.25;5081986;28;20328;-81
2022/11/07 04:46:15;;;;;;;1.73;0.90;;;;;;;-141.59;100.00;61776.25;5086991;28;20211;-81
2022/11/07 04:48:43;;;;;;;1.80;1.50;;;;;;;-141.59;100.00;61776.25;5090640;28;20292;-81
2022/11/07 04:51:17;;;;;;;1.57;1.00;;;;;;;-141.59;100.00;61776.25;5086533;28;20277;-81
2022/11/07 04:53:44;;;;;;;2.47;1.00;;;;;;;-141.59;100.00;61776.25;5101362;28;20230;-81
2022/11/07 04:56:13;;;;;;;1.37;1.10;;;;;;;-141.59;100.00;61776.25;5090673;28;20211;-81
2022/11/07 04:58:42;;;;;;;1.93;0.93;;;;;;;-141.59;100.00;61776.25;5081577;28;20292;-81
2022/11/07 05:01:09;;;;;;;1.10;1.00;;;;;;;-141.59;100.00;61776.25;5089466;28;20203;-81
2022/11/07 05:03:36;;;;;;;4.10;2.57;;;;;;;-141.59;100.00;61776.25;5087710;28;20197;-81
2022/11/07 05:06:07;;;;;;;3.73;2.10;;;;;;;-141.59;100.00;61776.25;5085054;28;20208;-81
2022/11/07 05:08:34;;;;;;;2.90;1.50;;;;;;;-141.59;100.00;61776.25;5088091;28;20227;-81
2022/11/07 05:11:01;;;;;;;2.00;1.40;;;;;;;-141.59;100.00;61776.25;5084374;28;20204;-81
2022/11/07 05:13:29;;;;;;;4.20;1.47;;;;;;;-141.59;100.00;61776.25;5086797;28;20221;-81
2022/11/07 05:15:58;;;;;;;1.20;1.10;;;;;;;-141.59;100.00;61776.25;5085504;28;20759;-81
2022/11/07 05:18:25;;;;;;;2.70;1.90;;;;;;;-141.59;100.00;61776.25;5087108;28;20221;-81
2022/11/07 05:20:52;;;;;;;3.00;2.10;;;;;;;-141.59;100.00;61776.25;5082210;28;20207;-81
2022/11/07 05:23:18;;;;;;;2.17;1.97;;;;;;;-141.59;100.00;61776.25;5081801;28;20216;-81
2022/11/07 05:25:49;;;;;;;2.13;1.53;;;;;;;-141.59;100.00;61776.25;5081884;28;20225;-81
2022/11/07 05:28:18;;;;;;;2.00;1.40;;;;;;;-141.59;100.00;61776.25;5081397;28;20311;-81
2022/11/07 05:30:47;;;;;;;1.57;1.43;;;;;;;-141.59;100.00;61776.25;5081353;28;20232;-81
2022/11/07 05:33:16;;;;;;;2.93;1.50;;;;;;;-141.59;100.00;61776.25;5089337;28;20224;-81
2022/11/07 05:35:44;;;;;;;1.70;1.60;;;;;;;-141.59;100.00;61776.25;5076600;28;20241;-83
2022/11/07 05:38:11;;;;;;;1.60;1.50;;;;;;;-141.59;100.00;61776.25;5082747;28;20201;-81
2022/11/07 05:40:40;;;;;;;2.70;1.67;;;;;;;-141.59;100.00;61776.25;5088034;28;20274;-81
2022/11/07 05:43:10;;;;;;;1.40;1.30;;;;;;;-141.59;100.00;61776.25;5073176;28;20208;-81
2022/11/07 05:45:39;;;;;;;1.50;1.40;;;;;;;-141.59;100.00;61776.25;5088037;28;20283;-81
2022/11/07 05:48:12;;;;;;;1.70;1.30;;;;;;;-141.59;100.00;61776.25;5087900;28;20314;-81
2022/11/07 05:50:40;;;;;;;3.10;1.20;;;;;;;-141.59;100.00;61776.25;5085279;28;20244;-81
2022/11/07 05:53:07;;;;;;;1.33;1.20;;;;;;;-141.59;100.00;61776.25;5084347;28;20244;-80
2022/11/07 05:55:34;;;;;;;2.67;1.23;;;;;;;-141.59;100.00;61776.25;5084777;28;20239;-81
2022/11/07 05:58:08;;;;;;;2.83;1.10;;;;;;;-141.59;100.00;61776.25;5087149;28;20205;-81
2022/11/07 06:00:37;;;;;;;2.17;1.57;;;;;;;-141.59;100.00;61776.25;5085867;28;20200;-81
2022/11/07 06:03:08;;;;;;;2.43;1.30;;;;;;;-141.59;100.00;61776.25;5080685;28;20291;-81
2022/11/07 06:05:37;;;;;;;1.53;1.20;;;;;;;-141.59;100.00;61776.25;5087112;28;20197;-81
2022/11/07 06:08:04;;;;;;;2.30;1.70;;;;;;;-141.59;100.00;61776.25;5082951;28;20221;-81
2022/11/07 06:10:31;;;;;;;1.90;1.70;;;;;;;-141.59;100.00;61776.25;5082208;28;20205;-80
2022/11/07 06:13:02;;;;;;;3.10;2.27;;;;;;;-141.59;100.00;61776.25;5081034;28;20228;-81
2022/11/07 06:15:31;;;;;;;3.30;1.60;;;;;;;-141.59;100.00;61776.25;5085701;28;20197;-81
2022/11/07 06:18:01;;;;;;;4.37;1.80;;;;;;;-141.59;100.00;61776.25;5087453;28;20196;-81
2022/11/07 06:20:31;;;;;;;2.00;1.50;;;;;;;-141.59;100.00;61776.25;5087619;28;20232;-81
2022/11/07 06:23:01;;;;;;;3.03;1.90;;;;;;;-141.59;100.00;61776.25;5082424;28;20193;-81
2022/11/07 06:25:30;;;;;;;4.40;3.57;;;;;;;-141.59;100.00;61776.25;5087052;28;20202;-81
2022/11/07 06:27:59;;;;;;;1.37;1.17;;;;;;;-141.59;100.00;61776.25;5085679;28;20194;-81
2022/11/07 06:30:27;;;;;;;2.20;1.80;;;;;;;-141.59;100.00;61776.25;5081200;28;20209;-82
2022/11/07 06:32:54;;;;;;;3.57;3.00;;;;;;;-141.59;100.00;61776.25;5084701;28;20235;-81
2022/11/07 06:35:22;;;;;;;5.97;5.23;;;;;;;-141.59;100.00;61776.25;5033025;28;1397145;-81
2022/11/07 06:37:50;;;;;;;5.37;3.53;;;;;;;-141.59;100.00;61776.25;5078720;28;20215;-81
2022/11/07 06:40:17;;;;;;;10.20;7.57;;;;;;;-141.59;100.00;61776.25;5079043;28;20288;-81
2022/11/07 06:42:45;;;;;;;7.60;6.80;;;;;;;-141.59;100.00;61776.25;5080828;28;20207;-81
2022/11/07 06:45:12;;;;;;;5.77;4.43;;;;;;;-141.59;100.00;61776.25;5079196;28;20201;-81
2022/11/07 06:47:39;;;;;;;4.00;3.13;;;;;;;-141.59;100.00;61776.25;5087909;28;20203;-81
2022/11/07 06:50:07;;;;;;;3.97;3.20;;;;;;;-141.59;100.00;61776.25;5085157;28;20216;-81
2022/11/07 06:52:34;;;;;;;3.57;3.00;;;;;;;-141.59;100.00;61776.25;5086776;28;20208;-81
2022/11/07 06:55:03;;;;;;;3.30;2.50;;;;;;;-141.59;100.00;61776.25;5087313;28;20206;-81
2022/11/07 06:57:33;;;;;;;2.77;2.20;;;;;;;-141.59;100.00;61776.25;5080796;28;20206;-81
2022/11/07 07:00:04;;;;;;;6.87;3.83;;;;;;;-141.59;100.00;61776.25;5079792;28;20213;-81
2022/11/07 07:02:34;;;;;;;7.63;6.83;;;;;;;-141.59;100.00;61776.25;5083848;28;20208;-81
2022/11/07 07:05:01;;;;;;;10.67;8.80;;;;;;;-141.59;100.00;61776.25;5070294;28;20296;-81
2022/11/07 07:07:29;;;;;;;52.80;35.17;;;;;;;-141.59;100.00;61776.25;5082935;28;20206;-81
2022/11/07 07:09:56;;;;;;;24.77;17.23;;;;;;;-141.59;100.00;61776.25;5083410;28;20209;-81
2022/11/07 07:12:25;;;;;;;18.17;13.30;;;;;;;-141.59;100.00;61776.25;5079595;28;20210;-81
2022/11/07 07:14:52;;;;;;;44.13;28.87;;;;;;;-141.59;100.00;61776.25;5080175;28;20217;-80
2022/11/07 07:17:19;;;;;;;20.53;14.70;;;;;;;-141.59;100.00;61776.25;5080544;28;20201;-81
2022/11/07 07:19:47;;;;;;;33.33;22.30;;;;;;;-141.59;100.00;61776.25;5083855;28;20324;-81
2022/11/07 07:22:14;;;;;;;37.10;25.73;;;;;;;-141.59;100.00;61776.25;5083417;28;20232;-81
2022/11/07 07:24:42;;;;;;;30.60;21.50;;;;;;;-141.59;100.00;61776.25;5081629;28;20224;-81
2022/11/07 07:27:09;;;;;;;21.20;15.03;;;;;;;-141.59;100.00;61776.25;5084745;28;20204;-81
2022/11/07 07:29:38;;;;;;;23.33;17.80;;;;;;;-141.59;100.00;61776.25;5085220;28;20204;-81
2022/11/07 07:32:06;;;;;;;18.77;14.50;;;;;;;-141.59;100.00;61776.25;5084878;28;20338;-81
2022/11/07 07:34:33;;;;;;;13.50;9.53;;;;;;;-141.59;100.00;61776.25;5082888;28;20227;-81
2022/11/07 07:37:00;;;;;;;10.97;8.17;;;;;;;-141.59;100.00;61776.25;5074739;28;20260;-81
2022/11/07 07:39:27;;;;;;;9.13;6.50;;;;;;;-141.59;100.00;61776.25;5086608;28;20207;-80
2022/11/07 07:41:54;;;;;;;7.53;5.77;;;;;;;-141.59;100.00;61776.25;5086895;28;20204;-81
2022/11/07 07:44:23;;;;;;;8.90;6.20;;;;;;;-141.59;100.00;61776.25;5084968;28;20216;-81
2022/11/07 07:46:53;;;;;;;12.17;10.53;;;;;;;-141.59;100.00;61776.25;5081869;28;20209;-81
2022/11/07 07:49:22;;;;;;;16.37;12.07;;;;;;;-141.59;100.00;61776.25;5076977;28;20225;-80
2022/11/07 07:51:50;;;;;;;19.83;6.70;;;;;;;-141.59;100.00;61776.25;5083329;28;20205;-81
2022/11/07 07:54:16;;;;;;;10.50;8.63;;;;;;;-141.59;100.00;61776.25;5086604;28;20232;-81
2022/11/07 07:56:44;;;;;;;11.23;9.30;;;;;;;-141.59;100.00;61776.25;5078317;28;20217;-80
2022/11/07 07:59:11;;;;;;;14.60;7.83;;;;;;;-141.59;100.00;61776.25;5080747;28;20204;-81
2022/11/07 08:01:39;;;;;;;8.33;6.23;;;;;;;-141.59;100.00;61776.25;5081912;28;20625;-81
2022/11/07 08:04:08;;;;;;;12.93;7.30;;;;;;;-141.59;100.00;61776.25;5084083;28;20200;-81
2022/11/07 08:06:36;;;;;;;8.80;6.83;;;;;;;-141.59;100.00;61776.25;5081207;28;20227;-81
2022/11/07 08:09:03;;;;;;;10.77;7.33;;;;;;;-141.59;100.00;61776.25;5082874;28;20232;-81
2022/11/07 08:11:34;;;;;;;10.57;7.80;;;;;;;-141.59;100.00;61776.25;5080301;28;20215;-81
2022/11/07 08:14:01;;;;;;;9.60;7.63;;;;;;;-141.59;100.00;61776.25;5079527;28;20295;-81
2022/11/07 08:16:28;;;;;;;10.77;6.60;;;;;;;-141.59;100.00;61776.25;5072890;28;20197;-82
2022/11/07 08:18:56;;;;;;;7.17;5.83;;;;;;;-141.59;100.00;61776.25;5088867;28;20217;-81
2022/11/07 08:21:25;;;;;;;5.83;4.67;;;;;;;-141.59;100.00;61776.25;5085513;28;20232;-81
2022/11/07 08:23:55;;;;;;;6.43;4.60;;;;;;;-141.59;100.00;61776.25;5083646;28;20235;-82
2022/11/07 08:26:22;;;;;;;5.93;3.03;;;;;;;-141.59;100.00;61776.25;5083693;28;20264;-81
2022/11/07 08:28:49;;;;;;;2.53;2.03;;;;;;;-141.59;100.00;61776.25;5083212;28;20193;-81
2022/11/07 08:31:16;;;;;;;2.33;1.73;;;;;;;-141.59;100.00;61776.25;5080772;28;20233;-81
2022/11/07 08:33:44;;;;;;;2.10;1.77;;;;;;;-141.59;100.00;61776.25;5086596;28;20228;-81
2022/11/07 08:36:11;;;;;;;3.10;2.10;;;;;;;-141.59;100.00;61776.25;5085056;28;20256;-81
2022/11/07 08:38:39;;;;;;;4.07;1.60;;;;;;;-141.59;100.00;61776.25;5084686;28;20203;-81
2022/11/07 08:41:10;;;;;;;1.97;1.70;;;;;;;-141.59;100.00;61776.25;5081791;28;20198;-81
2022/11/07 08:43:37;;;;;;;1.97;1.40;;;;;;;-141.59;100.00;61776.25;5086341;28;20250;-81
2022/11/07 08:46:04;;;;;;;2.10;1.70;;;;;;;-141.59;100.00;61776.25;5083755;28;20195;-81
2022/11/07 08:48:34;;;;;;;2.03;1.50;;;;;;;-141.59;100.00;61776.25;5088300;28;20212;-82
2022/11/07 08:51:02;;;;;;;2.00;1.40;;;;;;;-141.59;100.00;61776.25;5085259;28;20217;-81
2022/11/07 08:53:30;;;;;;;2.50;1.77;;;;;;;-141.59;100.00;61776.25;5077744;28;20251;-81
2022/11/07 08:56:03;;;;;;;1.70;1.40;;;;;;;-141.59;100.00;61776.25;5075871;28;20204;-81
2022/11/07 08:58:30;;;;;;;2.23;1.40;;;;;;;-141.59;100.00;61776.25;5083187;28;20289;-82
2022/11/07 09:00:58;;;;;;;1.10;1.00;;;;;;;-141.59;100.00;61776.25;5084984;28;20208;-82
2022/11/07 09:03:26;;;;;;;1.77;1.07;;;;;;;-141.59;100.00;61776.25;5087595;28;20277;-81
2022/11/07 09:05:56;;;;;;;2.23;1.03;;;;;;;-141.59;100.00;61776.25;5088658;28;20239;-82
2022/11/07 09:08:24;;;;;;;1.63;1.30;;;;;;;-141.59;100.00;61776.25;5085144;28;20207;-82
2022/11/07 09:11:03;;;;;;;2.07;1.40;;;;;;;-141.59;100.00;61776.25;5088680;28;20196;-81
2022/11/07 09:13:33;;;;;;;1.70;1.40;;;;;;;-141.59;100.00;61776.25;5103258;28;20212;-82
2022/11/07 09:16:01;;;;;;;2.83;1.17;;;;;;;-141.59;100.00;61776.25;5084664;28;20224;-81
2022/11/07 09:18:30;;;;;;;1.77;1.00;;;;;;;-141.59;100.00;61776.25;5068675;28;20312;-81
2022/11/07 09:20:57;;;;;;;1.70;1.20;;;;;;;-141.59;100.00;61776.25;5101743;28;20213;-81
2022/11/07 09:23:25;;;;;;;1.37;1.17;;;;;;;-141.59;100.00;61776.25;5080645;28;20309;-82
2022/11/07 09:25:52;;;;;;;1.10;1.00;;;;;;;-141.59;100.00;61776.25;5078637;28;20303;-81
2022/11/07 09:28:19;;;;;;;1.53;1.27;;;;;;;-141.59;100.00;61776.25;5078092;28;20211;-81
2022/11/07 09:30:54;;;;;;;1.83;1.43;;;;;;;-141.59;100.00;61776.25;5100198;28;20244;-81
2022/11/07 09:33:22;;;;;;;1.50;1.17;;;;;;;-141.59;100.00;61776.25;5079564;28;20215;-81
2022/11/07 09:35:52;;;;;;;2.13;1.00;;;;;;;-141.59;100.00;61776.25;5079065;28;20233;-81
2022/11/07 09:38:22;;;;;;;1.23;1.10;;;;;;;-141.59;100.00;61776.25;5074459;28;20264;-81
2022/11/07 09:40:57;;;;;;;1.33;0.97;;;;;;;-141.59;100.00;61776.25;5088070;28;20209;-81
2022/11/07 09:43:41;;;;;;;1.37;1.00;;;;;;;-141.59;100.00;61776.25;5088510;28;20239;-81
2022/11/07 09:46:22;;;;;;;1.87;1.20;;;;;;;-141.59;100.00;61776.25;5084729;28;20204;-82
2022/11/07 09:48:56;;;;;;;1.40;1.20;;;;;;;-141.59;100.00;61776.25;5080855;28;20203;-82
2022/11/07 09:51:28;;;;;;;1.30;1.00;;;;;;;-141.59;100.00;61776.25;5078100;28;20273;-82
2022/11/07 09:54:00;;;;;;;1.60;1.10;;;;;;;-141.59;100.00;61776.25;5079648;28;20250;-82
2022/11/07 09:56:29;;;;;;;4.00;1.00;;;;;;;-141.59;100.00;61776.25;5095538;28;20219;-82
2022/11/07 09:59:01;;;;;;;1.30;1.10;;;;;;;-141.59;100.00;61776.25;5085647;28;20217;-82
2022/11/07 10:01:31;;;;;;;1.30;1.10;;;;;;;-141.59;100.00;61776.25;5085888;28;20234;-82
2022/11/07 10:03:59;;;;;;;1.63;1.23;;;;;;;-141.59;100.00;61776.25;5087930;28;20189;-82
2022/11/07 10:06:29;;;;;;;1.20;1.10;;;;;;;-141.59;100.00;61776.25;5084941;28;20192;-82
2022/11/07 10:09:07;;;;;;;0.80;0.80;;;;;;;-141.59;100.00;61776.25;5087316;28;20220;-82
2022/11/07 10:11:39;;;;;;;1.10;1.00;;;;;;;-141.59;100.00;61776.25;5089099;28;20246;-82
2022/11/07 10:14:19;;;;;;;1.60;1.40;;;;;;;-141.59;100.00;61776.25;5109552;27;20229;-83
2022/11/07 10:17:06;;;;;;;2.03;1.23;;;;;;;-141.59;100.00;61776.25;5090522;28;20216;-82
2022/11/07 10:19:48;;;;;;;2.70;1.07;;;;;;;-141.59;100.00;61776.25;5084873;28;20212;-82
2022/11/07 10:22:28;;;;;;;1.63;1.30;;;;;;;-141.59;100.00;61776.25;5091511;28;20204;-82
2022/11/07 10:25:07;;;;;;;1.77;1.27;;;;;;;-141.59;100.00;61776.25;5087636;28;20205;-82
2022/11/07 10:27:39;;;;;;;2.50;1.60;;;;;;;-141.59;100.00;61776.25;5098733;28;20221;-82
2022/11/07 10:30:15;;;;;;;2.10;1.40;;;;;;;-141.59;100.00;61776.25;5083345;28;20224;-82
2022/11/07 10:32:52;;;;;;;2.23;1.10;;;;;;;-141.59;100.00;61776.25;5080460;28;20240;-82
2022/11/07 10:35:25;;;;;;;4.50;1.10;;;;;;;-141.59;100.00;61776.25;5090618;28;20238;-82
2022/11/07 10:37:57;;;;;;;1.77;1.43;;;;;;;-141.59;100.00;61776.25;5085565;28;20205;-82
2022/11/07 10:40:32;;;;;;;2.80;1.20;;;;;;;-141.59;100.00;61776.25;5085072;28;20254;-82
2022/11/07 10:43:01;;;;;;;1.53;1.10;;;;;;;-141.59;100.00;61776.25;5088662;28;20306;-82
2022/11/07 10:45:29;;;;;;;3.33;1.23;;;;;;;-141.59;100.00;61776.25;5085483;28;20260;-82
2022/11/07 10:48:01;;;;;;;1.97;1.30;;;;;;;-141.59;100.00;61776.25;5086783;28;20307;-81
2022/11/07 10:50:29;;;;;;;1.90;1.07;;;;;;;-141.59;100.00;61776.25;5081721;28;20209;-81
2022/11/07 10:52:58;;;;;;;3.53;1.30;;;;;;;-141.59;100.00;61776.25;5083798;28;20208;-82
2022/11/07 10:55:26;;;;;;;2.20;1.20;;;;;;;-141.59;100.00;61776.25;5087116;28;20232;-82
2022/11/07 10:57:58;;;;;;;1.83;1.40;;;;;;;-141.59;100.00;61776.25;5084913;28;20210;-82
2022/11/07 11:00:28;;;;;;;2.50;1.20;;;;;;;-141.59;100.00;61776.25;5085575;28;20201;-81
2022/11/07 11:02:56;;;;;;;1.97;1.30;;;;;;;-141.59;100.00;61776.25;5079717;28;20197;-81
2022/11/07 11:05:28;;;;;;;1.90;1.47;;;;;;;-141.59;100.00;61776.25;5086028;28;20211;-81
2022/11/07 11:07:57;;;;;;;3.57;1.50;;;;;;;-141.59;100.00;61776.25;5085407;28;20279;-82
2022/11/07 11:10:27;;;;;;;2.00;1.30;;;;;;;-141.59;100.00;61776.25;5087230;28;20193;-82
2022/11/07 11:12:55;;;;;;;2.30;1.40;;;;;;;-141.59;100.00;61776.25;5087919;28;20209;-82
2022/11/07 11:15:23;;;;;;;1.87;1.23;;;;;;;-141.59;100.00;61776.25;5084256;28;20232;-82
2022/11/07 11:18:00;;;;;;;2.40;1.33;;;;;;;-141.59;100.00;61776.25;5083127;28;20197;-82
2022/11/07 11:20:33;;;;;;;2.50;1.50;;;;;;;-141.59;100.00;61776.25;5079544;28;20225;-81
2022/11/07 11:23:03;;;;;;;3.27;1.30;;;;;;;-141.59;100.00;61776.25;5083926;28;20209;-82
2022/11/07 11:25:30;;;;;;;2.43;1.47;;;;;;;-141.59;100.00;61776.25;5084764;28;20200;-82
2022/11/07 11:28:04;;;;;;;1.40;1.30;;;;;;;-141.59;100.00;61776.25;5086956;28;20203;-82